Shelton, WA (98584)

3:21 AM PDT on May 27, 2015 (GMT -0700)
Walker Park Road | | Change Station
CLOSE
Current Station
Personal Weather Station
Location: Shelton, WA
Elevation: 20 ft
Nearby Weather Stations

Elev 20 ft 47.20 °N, 123.07 °W | Updated 11 minutes ago

Overcast
Overcast
50.4 °F
Feels Like 50.4 °F
N
0.0
Wind Variable Wind from SW

Today
High -- | Low -- °F
--% Chance of Precip.
Yesterday
High -- | Low -- °F
Precip. -- in
5:24 AM 8:55 PM
Waxing Gibbous, 66% visible
Pressure 30.04 in
Visibility 10.0 miles
Clouds Overcast 400 ft
Dew Point 50 °F
Humidity 99%
Rainfall 0.00 in
Snow Depth Not available.
UV 0 out of 12
Pollen 7.40 out of 12
Air Quality Not available.
Flu Activity Sporadic
METAR KSHN 270953Z AUTO 25006KT 10SM OVC004 11/09 A3004 RMK AO2 SLP172 T01060094

More Conditions Fewer Conditions

Pressure 30.04 in
Visibility 10.0 miles
Clouds Overcast 400 ft
Dew Point 50 °F
Humidity 99%
Rainfall 0.00 in
Snow Depth Not available.
UV 0 out of 12
Pollen 7.40 out of 12
Air Quality Not available.
Flu Activity Sporadic
METAR KSHN 270953Z AUTO 25006KT 10SM OVC004 11/09 A3004 RMK AO2 SLP172 T01060094

More Conditions Fewer Conditions

10-Day Weather Forecast

Almanac

Astronomy

May. 27, 2015 Rise Set
Actual Time
Civil Twilight
Nautical Twilight
Astronomical Twilight
Moon
Length of Visible Light
Length of Day
Tomorrow will be .
, % of the Moon is Illuminated

Today's Extremes

State Highs State Lows

Community

WunderPhotos

Upload Photos

1,824,635 photos uploaded!

WunderBlogs® & News

Nearby

Air Quality

  Air Quality AQ Index Pollutant
Not available.

Snow Depth

Station Depth Elevation

Earthquake Activity

City Distance Mag. Time & Date
Minimum magnitude displayed is 2.5.

Coastal Water Temperatures

Place Temperature

Stations

Nearby Weather Stations

Station Location Temp. Windchill Dew Point Humidity Wind Precip. Elev Updated Type